sensor_id;sensor_type;location;lat;lon;timestamp;P1;durP1;ratioP1;P2;durP2;ratioP2
20531;SDS011;10424;52.102;8.084;2022-08-14T00:00:02;8.45;;;7.47;;
20531;SDS011;10424;52.102;8.084;2022-08-14T00:02:30;10.32;;;7.45;;
20531;SDS011;10424;52.102;8.084;2022-08-14T00:04:59;10.38;;;7.53;;
20531;SDS011;10424;52.102;8.084;2022-08-14T00:07:26;8.95;;;7.35;;
20531;SDS011;10424;52.102;8.084;2022-08-14T00:09:54;10.35;;;7.80;;
20531;SDS011;10424;52.102;8.084;2022-08-14T00:12:21;10.02;;;7.88;;
20531;SDS011;10424;52.102;8.084;2022-08-14T00:14:49;8.88;;;7.80;;
20531;SDS011;10424;52.102;8.084;2022-08-14T00:17:16;13.70;;;8.13;;
20531;SDS011;10424;52.102;8.084;2022-08-14T00:19:43;11.38;;;7.82;;
20531;SDS011;10424;52.102;8.084;2022-08-14T00:22:12;8.40;;;7.50;;
20531;SDS011;10424;52.102;8.084;2022-08-14T00:24:42;10.77;;;7.72;;
20531;SDS011;10424;52.102;8.084;2022-08-14T00:27:10;11.15;;;8.05;;
20531;SDS011;10424;52.102;8.084;2022-08-14T00:29:37;8.93;;;7.38;;
20531;SDS011;10424;52.102;8.084;2022-08-14T00:32:05;9.30;;;8.07;;
20531;SDS011;10424;52.102;8.084;2022-08-14T00:34:32;8.23;;;7.28;;
20531;SDS011;10424;52.102;8.084;2022-08-14T00:37:00;9.25;;;7.45;;
20531;SDS011;10424;52.102;8.084;2022-08-14T00:39:29;9.00;;;7.43;;
20531;SDS011;10424;52.102;8.084;2022-08-14T00:41:56;11.70;;;7.78;;
20531;SDS011;10424;52.102;8.084;2022-08-14T00:44:23;11.85;;;8.43;;
20531;SDS011;10424;52.102;8.084;2022-08-14T00:46:51;10.43;;;7.80;;
20531;SDS011;10424;52.102;8.084;2022-08-14T00:49:18;12.30;;;7.82;;
20531;SDS011;10424;52.102;8.084;2022-08-14T00:51:45;9.98;;;8.50;;
20531;SDS011;10424;52.102;8.084;2022-08-14T00:54:12;10.93;;;7.90;;
20531;SDS011;10424;52.102;8.084;2022-08-14T00:56:42;9.05;;;7.60;;
20531;SDS011;10424;52.102;8.084;2022-08-14T00:59:09;15.40;;;8.52;;
20531;SDS011;10424;52.102;8.084;2022-08-14T01:01:37;10.05;;;7.72;;
20531;SDS011;10424;52.102;8.084;2022-08-14T01:04:04;9.50;;;8.05;;
20531;SDS011;10424;52.102;8.084;2022-08-14T01:06:32;11.23;;;7.65;;
20531;SDS011;10424;52.102;8.084;2022-08-14T01:09:00;8.38;;;7.47;;
20531;SDS011;10424;52.102;8.084;2022-08-14T01:11:27;9.43;;;7.68;;
20531;SDS011;10424;52.102;8.084;2022-08-14T01:13:56;9.05;;;7.53;;
20531;SDS011;10424;52.102;8.084;2022-08-14T01:16:24;10.32;;;7.82;;
20531;SDS011;10424;52.102;8.084;2022-08-14T01:18:52;8.55;;;7.63;;
20531;SDS011;10424;52.102;8.084;2022-08-14T01:21:39;12.50;;;8.02;;
20531;SDS011;10424;52.102;8.084;2022-08-14T01:24:07;9.98;;;7.82;;
20531;SDS011;10424;52.102;8.084;2022-08-14T01:26:34;11.40;;;7.85;;
20531;SDS011;10424;52.102;8.084;2022-08-14T01:29:03;10.05;;;8.35;;
20531;SDS011;10424;52.102;8.084;2022-08-14T01:31:32;11.18;;;8.68;;
20531;SDS011;10424;52.102;8.084;2022-08-14T01:34:00;11.75;;;7.82;;
20531;SDS011;10424;52.102;8.084;2022-08-14T01:36:31;11.75;;;8.25;;
20531;SDS011;10424;52.102;8.084;2022-08-14T01:39:03;11.13;;;7.97;;
20531;SDS011;10424;52.102;8.084;2022-08-14T01:41:31;11.30;;;8.43;;
20531;SDS011;10424;52.102;8.084;2022-08-14T01:44:00;10.48;;;8.02;;
20531;SDS011;10424;52.102;8.084;2022-08-14T01:46:28;11.02;;;8.60;;
20531;SDS011;10424;52.102;8.084;2022-08-14T01:48:56;10.05;;;7.78;;
20531;SDS011;10424;52.102;8.084;2022-08-14T01:51:24;11.90;;;8.32;;
20531;SDS011;10424;52.102;8.084;2022-08-14T01:53:53;10.32;;;8.00;;
20531;SDS011;10424;52.102;8.084;2022-08-14T01:56:23;11.52;;;8.20;;
20531;SDS011;10424;52.102;8.084;2022-08-14T01:59:00;11.60;;;7.65;;
20531;SDS011;10424;52.102;8.084;2022-08-14T02:01:27;10.20;;;7.95;;
20531;SDS011;10424;52.102;8.084;2022-08-14T02:03:55;9.18;;;8.10;;
20531;SDS011;10424;52.102;8.084;2022-08-14T02:06:22;10.35;;;7.78;;
20531;SDS011;10424;52.102;8.084;2022-08-14T02:08:51;10.60;;;7.75;;
20531;SDS011;10424;52.102;8.084;2022-08-14T02:11:19;9.18;;;7.93;;
20531;SDS011;10424;52.102;8.084;2022-08-14T02:13:52;10.13;;;8.00;;
20531;SDS011;10424;52.102;8.084;2022-08-14T02:16:21;12.93;;;8.50;;
20531;SDS011;10424;52.102;8.084;2022-08-14T02:18:49;10.23;;;7.82;;
20531;SDS011;10424;52.102;8.084;2022-08-14T02:21:17;9.68;;;8.15;;
20531;SDS011;10424;52.102;8.084;2022-08-14T02:23:45;10.10;;;7.93;;
20531;SDS011;10424;52.102;8.084;2022-08-14T02:26:13;12.25;;;7.85;;
20531;SDS011;10424;52.102;8.084;2022-08-14T02:28:41;11.00;;;7.68;;
20531;SDS011;10424;52.102;8.084;2022-08-14T02:31:11;10.80;;;7.72;;
20531;SDS011;10424;52.102;8.084;2022-08-14T02:33:38;11.70;;;7.80;;
20531;SDS011;10424;52.102;8.084;2022-08-14T02:36:07;10.13;;;8.10;;
20531;SDS011;10424;52.102;8.084;2022-08-14T02:38:34;10.38;;;8.30;;
20531;SDS011;10424;52.102;8.084;2022-08-14T02:41:03;11.15;;;7.90;;
20531;SDS011;10424;52.102;8.084;2022-08-14T02:43:30;13.43;;;7.75;;
20531;SDS011;10424;52.102;8.084;2022-08-14T02:45:58;9.00;;;8.05;;
20531;SDS011;10424;52.102;8.084;2022-08-14T02:48:26;16.90;;;8.93;;
20531;SDS011;10424;52.102;8.084;2022-08-14T02:50:56;13.15;;;7.95;;
20531;SDS011;10424;52.102;8.084;2022-08-14T02:53:23;12.32;;;8.02;;
20531;SDS011;10424;52.102;8.084;2022-08-14T02:55:50;9.10;;;7.75;;
20531;SDS011;10424;52.102;8.084;2022-08-14T02:58:18;10.88;;;8.30;;
20531;SDS011;10424;52.102;8.084;2022-08-14T03:00:48;11.50;;;7.97;;
20531;SDS011;10424;52.102;8.084;2022-08-14T03:03:15;11.50;;;8.57;;
20531;SDS011;10424;52.102;8.084;2022-08-14T03:05:48;12.13;;;8.20;;
20531;SDS011;10424;52.102;8.084;2022-08-14T03:08:16;10.77;;;8.07;;
20531;SDS011;10424;52.102;8.084;2022-08-14T03:10:43;12.32;;;8.00;;
20531;SDS011;10424;52.102;8.084;2022-08-14T03:13:11;13.25;;;7.80;;
20531;SDS011;10424;52.102;8.084;2022-08-14T03:15:38;10.90;;;7.68;;
20531;SDS011;10424;52.102;8.084;2022-08-14T03:18:08;9.85;;;7.90;;
20531;SDS011;10424;52.102;8.084;2022-08-14T03:20:36;9.38;;;7.70;;
20531;SDS011;10424;52.102;8.084;2022-08-14T03:23:04;9.23;;;8.10;;
20531;SDS011;10424;52.102;8.084;2022-08-14T03:25:32;13.55;;;8.25;;
20531;SDS011;10424;52.102;8.084;2022-08-14T03:28:01;11.73;;;8.30;;
20531;SDS011;10424;52.102;8.084;2022-08-14T03:30:29;12.30;;;8.27;;
20531;SDS011;10424;52.102;8.084;2022-08-14T03:32:56;9.82;;;7.78;;
20531;SDS011;10424;52.102;8.084;2022-08-14T03:35:24;13.25;;;8.60;;
20531;SDS011;10424;52.102;8.084;2022-08-14T03:37:52;11.98;;;7.95;;
20531;SDS011;10424;52.102;8.084;2022-08-14T03:40:21;10.15;;;7.38;;
20531;SDS011;10424;52.102;8.084;2022-08-14T03:42:49;9.50;;;8.05;;
20531;SDS011;10424;52.102;8.084;2022-08-14T03:45:17;11.65;;;8.50;;
20531;SDS011;10424;52.102;8.084;2022-08-14T03:47:44;10.98;;;8.43;;
20531;SDS011;10424;52.102;8.084;2022-08-14T03:50:11;10.65;;;8.18;;
20531;SDS011;10424;52.102;8.084;2022-08-14T03:52:39;10.57;;;8.18;;
20531;SDS011;10424;52.102;8.084;2022-08-14T03:55:09;11.75;;;8.38;;
20531;SDS011;10424;52.102;8.084;2022-08-14T03:57:38;9.32;;;7.97;;
20531;SDS011;10424;52.102;8.084;2022-08-14T04:00:07;10.48;;;8.15;;
20531;SDS011;10424;52.102;8.084;2022-08-14T04:02:35;12.20;;;8.18;;
20531;SDS011;10424;52.102;8.084;2022-08-14T04:05:03;9.60;;;8.07;;
20531;SDS011;10424;52.102;8.084;2022-08-14T04:07:30;9.85;;;8.00;;
20531;SDS011;10424;52.102;8.084;2022-08-14T04:09:58;12.82;;;8.30;;
20531;SDS011;10424;52.102;8.084;2022-08-14T04:12:25;10.15;;;8.40;;
20531;SDS011;10424;52.102;8.084;2022-08-14T04:14:54;10.32;;;8.32;;
20531;SDS011;10424;52.102;8.084;2022-08-14T04:17:22;11.07;;;8.10;;
20531;SDS011;10424;52.102;8.084;2022-08-14T04:19:50;9.13;;;8.15;;
20531;SDS011;10424;52.102;8.084;2022-08-14T04:22:17;11.65;;;8.18;;
20531;SDS011;10424;52.102;8.084;2022-08-14T04:24:46;11.07;;;8.35;;
20531;SDS011;10424;52.102;8.084;2022-08-14T04:29:42;13.95;;;8.40;;
20531;SDS011;10424;52.102;8.084;2022-08-14T04:32:11;9.98;;;8.27;;
20531;SDS011;10424;52.102;8.084;2022-08-14T04:34:39;10.60;;;8.65;;
20531;SDS011;10424;52.102;8.084;2022-08-14T04:37:07;11.20;;;8.27;;
20531;SDS011;10424;52.102;8.084;2022-08-14T04:39:52;11.63;;;8.60;;
20531;SDS011;10424;52.102;8.084;2022-08-14T04:42:38;11.35;;;8.32;;
20531;SDS011;10424;52.102;8.084;2022-08-14T04:45:24;9.43;;;7.88;;
20531;SDS011;10424;52.102;8.084;2022-08-14T04:47:58;12.60;;;8.80;;
20531;SDS011;10424;52.102;8.084;2022-08-14T04:50:38;11.52;;;8.65;;
20531;SDS011;10424;52.102;8.084;2022-08-14T04:53:06;12.95;;;8.02;;
20531;SDS011;10424;52.102;8.084;2022-08-14T04:55:35;10.77;;;8.45;;
20531;SDS011;10424;52.102;8.084;2022-08-14T04:58:03;11.27;;;8.77;;
20531;SDS011;10424;52.102;8.084;2022-08-14T05:00:31;10.75;;;8.10;;
20531;SDS011;10424;52.102;8.084;2022-08-14T05:03:00;14.45;;;9.05;;
20531;SDS011;10424;52.102;8.084;2022-08-14T05:05:29;9.55;;;8.55;;
20531;SDS011;10424;52.102;8.084;2022-08-14T05:08:02;9.55;;;8.15;;
20531;SDS011;10424;52.102;8.084;2022-08-14T05:10:37;9.88;;;8.77;;
20531;SDS011;10424;52.102;8.084;2022-08-14T05:13:06;11.20;;;8.60;;
20531;SDS011;10424;52.102;8.084;2022-08-14T05:15:34;13.00;;;8.48;;
20531;SDS011;10424;52.102;8.084;2022-08-14T05:18:08;9.75;;;8.68;;
20531;SDS011;10424;52.102;8.084;2022-08-14T05:20:37;9.40;;;8.40;;
20531;SDS011;10424;52.102;8.084;2022-08-14T05:23:05;11.43;;;8.55;;
20531;SDS011;10424;52.102;8.084;2022-08-14T05:25:33;9.68;;;8.57;;
20531;SDS011;10424;52.102;8.084;2022-08-14T05:28:07;11.10;;;8.80;;
20531;SDS011;10424;52.102;8.084;2022-08-14T05:30:35;11.20;;;8.80;;
20531;SDS011;10424;52.102;8.084;2022-08-14T05:33:02;11.45;;;8.65;;
20531;SDS011;10424;52.102;8.084;2022-08-14T05:35:31;11.85;;;8.75;;
20531;SDS011;10424;52.102;8.084;2022-08-14T05:37:58;12.68;;;8.82;;
20531;SDS011;10424;52.102;8.084;2022-08-14T05:40:26;15.02;;;8.82;;
20531;SDS011;10424;52.102;8.084;2022-08-14T05:42:53;13.48;;;8.55;;
20531;SDS011;10424;52.102;8.084;2022-08-14T05:45:21;12.50;;;9.00;;
20531;SDS011;10424;52.102;8.084;2022-08-14T05:47:48;11.80;;;8.57;;
20531;SDS011;10424;52.102;8.084;2022-08-14T05:50:15;12.45;;;9.35;;
20531;SDS011;10424;52.102;8.084;2022-08-14T05:52:44;12.15;;;8.80;;
20531;SDS011;10424;52.102;8.084;2022-08-14T05:55:12;12.32;;;9.25;;
20531;SDS011;10424;52.102;8.084;2022-08-14T05:57:46;11.82;;;8.90;;
20531;SDS011;10424;52.102;8.084;2022-08-14T06:00:15;14.07;;;9.18;;
20531;SDS011;10424;52.102;8.084;2022-08-14T06:02:43;13.32;;;9.82;;
20531;SDS011;10424;52.102;8.084;2022-08-14T06:05:10;13.90;;;8.82;;
20531;SDS011;10424;52.102;8.084;2022-08-14T06:07:37;13.48;;;9.15;;
20531;SDS011;10424;52.102;8.084;2022-08-14T06:10:07;10.48;;;9.18;;
20531;SDS011;10424;52.102;8.084;2022-08-14T06:12:35;11.07;;;9.10;;
20531;SDS011;10424;52.102;8.084;2022-08-14T06:15:03;11.90;;;9.00;;
20531;SDS011;10424;52.102;8.084;2022-08-14T06:17:31;9.50;;;8.43;;
20531;SDS011;10424;52.102;8.084;2022-08-14T06:19:58;11.73;;;9.00;;
20531;SDS011;10424;52.102;8.084;2022-08-14T06:22:26;10.75;;;8.77;;
20531;SDS011;10424;52.102;8.084;2022-08-14T06:24:53;9.80;;;8.45;;
20531;SDS011;10424;52.102;8.084;2022-08-14T06:27:21;10.52;;;8.30;;
20531;SDS011;10424;52.102;8.084;2022-08-14T06:29:49;10.68;;;8.68;;
20531;SDS011;10424;52.102;8.084;2022-08-14T06:32:16;10.05;;;8.05;;
20531;SDS011;10424;52.102;8.084;2022-08-14T06:34:43;10.50;;;8.65;;
20531;SDS011;10424;52.102;8.084;2022-08-14T06:37:11;11.23;;;8.50;;
20531;SDS011;10424;52.102;8.084;2022-08-14T06:39:38;11.77;;;8.77;;
20531;SDS011;10424;52.102;8.084;2022-08-14T06:42:05;11.18;;;8.70;;
20531;SDS011;10424;52.102;8.084;2022-08-14T06:44:34;11.32;;;8.77;;
20531;SDS011;10424;52.102;8.084;2022-08-14T06:47:02;12.15;;;8.38;;
20531;SDS011;10424;52.102;8.084;2022-08-14T06:49:29;11.60;;;8.50;;
20531;SDS011;10424;52.102;8.084;2022-08-14T06:51:57;10.65;;;7.65;;
20531;SDS011;10424;52.102;8.084;2022-08-14T06:54:25;9.07;;;7.57;;
20531;SDS011;10424;52.102;8.084;2022-08-14T06:56:52;8.90;;;7.35;;
20531;SDS011;10424;52.102;8.084;2022-08-14T06:59:20;9.38;;;7.25;;
20531;SDS011;10424;52.102;8.084;2022-08-14T07:01:49;8.52;;;6.93;;
20531;SDS011;10424;52.102;8.084;2022-08-14T07:04:33;7.65;;;6.50;;
20531;SDS011;10424;52.102;8.084;2022-08-14T07:07:18;8.35;;;6.40;;
20531;SDS011;10424;52.102;8.084;2022-08-14T07:09:46;7.00;;;6.30;;
20531;SDS011;10424;52.102;8.084;2022-08-14T07:12:13;10.70;;;6.57;;
20531;SDS011;10424;52.102;8.084;2022-08-14T07:14:42;8.80;;;6.20;;
20531;SDS011;10424;52.102;8.084;2022-08-14T07:17:10;6.93;;;6.18;;
20531;SDS011;10424;52.102;8.084;2022-08-14T07:19:38;7.30;;;6.05;;
20531;SDS011;10424;52.102;8.084;2022-08-14T07:22:05;7.88;;;5.70;;
20531;SDS011;10424;52.102;8.084;2022-08-14T07:24:32;6.75;;;5.45;;
20531;SDS011;10424;52.102;8.084;2022-08-14T07:27:00;7.72;;;5.65;;
20531;SDS011;10424;52.102;8.084;2022-08-14T07:29:27;7.57;;;5.68;;
20531;SDS011;10424;52.102;8.084;2022-08-14T07:31:55;6.95;;;5.50;;
20531;SDS011;10424;52.102;8.084;2022-08-14T07:34:23;5.88;;;5.25;;
20531;SDS011;10424;52.102;8.084;2022-08-14T07:36:51;6.65;;;5.75;;
20531;SDS011;10424;52.102;8.084;2022-08-14T07:39:18;7.93;;;5.63;;
20531;SDS011;10424;52.102;8.084;2022-08-14T07:41:45;9.20;;;6.05;;
20531;SDS011;10424;52.102;8.084;2022-08-14T07:44:13;7.93;;;5.85;;
20531;SDS011;10424;52.102;8.084;2022-08-14T07:46:41;6.68;;;5.90;;
20531;SDS011;10424;52.102;8.084;2022-08-14T07:49:08;6.82;;;5.90;;
20531;SDS011;10424;52.102;8.084;2022-08-14T07:51:37;6.35;;;5.70;;
20531;SDS011;10424;52.102;8.084;2022-08-14T07:54:05;7.38;;;5.70;;
20531;SDS011;10424;52.102;8.084;2022-08-14T07:56:32;6.05;;;5.45;;
20531;SDS011;10424;52.102;8.084;2022-08-14T07:59:00;8.30;;;6.05;;
20531;SDS011;10424;52.102;8.084;2022-08-14T08:01:28;9.85;;;5.63;;
20531;SDS011;10424;52.102;8.084;2022-08-14T08:03:56;7.32;;;5.60;;
20531;SDS011;10424;52.102;8.084;2022-08-14T08:06:24;5.85;;;5.35;;
20531;SDS011;10424;52.102;8.084;2022-08-14T08:08:53;6.10;;;5.50;;
20531;SDS011;10424;52.102;8.084;2022-08-14T08:11:21;6.32;;;5.72;;
20531;SDS011;10424;52.102;8.084;2022-08-14T08:13:48;6.13;;;5.30;;
20531;SDS011;10424;52.102;8.084;2022-08-14T08:16:16;8.30;;;5.53;;
20531;SDS011;10424;52.102;8.084;2022-08-14T08:18:45;6.20;;;5.60;;
20531;SDS011;10424;52.102;8.084;2022-08-14T08:21:13;5.90;;;5.20;;
20531;SDS011;10424;52.102;8.084;2022-08-14T08:23:41;6.80;;;5.60;;
20531;SDS011;10424;52.102;8.084;2022-08-14T08:26:10;6.22;;;5.63;;
20531;SDS011;10424;52.102;8.084;2022-08-14T08:28:41;6.63;;;5.93;;
20531;SDS011;10424;52.102;8.084;2022-08-14T08:31:09;6.43;;;5.35;;
20531;SDS011;10424;52.102;8.084;2022-08-14T08:33:37;6.25;;;5.10;;
20531;SDS011;10424;52.102;8.084;2022-08-14T08:36:08;6.55;;;4.70;;
20531;SDS011;10424;52.102;8.084;2022-08-14T08:38:36;5.90;;;4.80;;
20531;SDS011;10424;52.102;8.084;2022-08-14T08:41:04;7.82;;;4.97;;
20531;SDS011;10424;52.102;8.084;2022-08-14T08:43:34;8.35;;;5.00;;
20531;SDS011;10424;52.102;8.084;2022-08-14T08:46:05;6.03;;;4.88;;
20531;SDS011;10424;52.102;8.084;2022-08-14T08:48:42;5.45;;;4.90;;
20531;SDS011;10424;52.102;8.084;2022-08-14T08:51:18;5.20;;;4.70;;
20531;SDS011;10424;52.102;8.084;2022-08-14T08:53:54;6.25;;;4.35;;
20531;SDS011;10424;52.102;8.084;2022-08-14T08:56:31;5.35;;;4.25;;
20531;SDS011;10424;52.102;8.084;2022-08-14T08:59:00;5.65;;;4.95;;
20531;SDS011;10424;52.102;8.084;2022-08-14T09:01:28;7.13;;;4.90;;
20531;SDS011;10424;52.102;8.084;2022-08-14T09:04:05;8.82;;;5.20;;
20531;SDS011;10424;52.102;8.084;2022-08-14T09:09:48;6.20;;;4.90;;
20531;SDS011;10424;52.102;8.084;2022-08-14T09:12:34;6.60;;;5.90;;
20531;SDS011;10424;52.102;8.084;2022-08-14T09:27:14;7.25;;;5.60;;
20531;SDS011;10424;52.102;8.084;2022-08-14T09:29:56;8.95;;;5.65;;
20531;SDS011;10424;52.102;8.084;2022-08-14T09:32:26;6.07;;;5.47;;
20531;SDS011;10424;52.102;8.084;2022-08-14T09:34:59;6.13;;;5.13;;
20531;SDS011;10424;52.102;8.084;2022-08-14T09:37:34;7.57;;;5.20;;
20531;SDS011;10424;52.102;8.084;2022-08-14T09:40:04;6.55;;;5.38;;
20531;SDS011;10424;52.102;8.084;2022-08-14T09:42:37;6.63;;;5.10;;
20531;SDS011;10424;52.102;8.084;2022-08-14T09:45:17;5.88;;;5.28;;
20531;SDS011;10424;52.102;8.084;2022-08-14T09:47:46;6.90;;;5.22;;
20531;SDS011;10424;52.102;8.084;2022-08-14T09:50:17;7.10;;;5.07;;
20531;SDS011;10424;52.102;8.084;2022-08-14T09:52:47;7.78;;;5.13;;
20531;SDS011;10424;52.102;8.084;2022-08-14T09:55:16;7.47;;;5.28;;
20531;SDS011;10424;52.102;8.084;2022-08-14T09:57:47;5.72;;;5.22;;
20531;SDS011;10424;52.102;8.084;2022-08-14T10:00:16;6.07;;;5.38;;
20531;SDS011;10424;52.102;8.084;2022-08-14T10:02:51;5.90;;;5.25;;
20531;SDS011;10424;52.102;8.084;2022-08-14T10:05:26;6.18;;;5.28;;
20531;SDS011;10424;52.102;8.084;2022-08-14T10:07:54;5.88;;;5.25;;
20531;SDS011;10424;52.102;8.084;2022-08-14T10:10:26;5.57;;;5.07;;
20531;SDS011;10424;52.102;8.084;2022-08-14T10:12:54;7.65;;;5.25;;
20531;SDS011;10424;52.102;8.084;2022-08-14T10:15:22;6.70;;;5.50;;
20531;SDS011;10424;52.102;8.084;2022-08-14T10:18:01;6.50;;;5.47;;
20531;SDS011;10424;52.102;8.084;2022-08-14T10:20:34;6.13;;;5.53;;
20531;SDS011;10424;52.102;8.084;2022-08-14T10:23:09;6.43;;;5.50;;
20531;SDS011;10424;52.102;8.084;2022-08-14T10:25:40;6.65;;;5.30;;
20531;SDS011;10424;52.102;8.084;2022-08-14T10:28:09;7.78;;;5.60;;
20531;SDS011;10424;52.102;8.084;2022-08-14T10:30:40;5.65;;;5.15;;
20531;SDS011;10424;52.102;8.084;2022-08-14T10:33:07;9.55;;;5.35;;
20531;SDS011;10424;52.102;8.084;2022-08-14T10:35:38;6.55;;;5.40;;
20531;SDS011;10424;52.102;8.084;2022-08-14T10:38:05;5.93;;;5.32;;
20531;SDS011;10424;52.102;8.084;2022-08-14T10:40:33;6.68;;;5.57;;
20531;SDS011;10424;52.102;8.084;2022-08-14T10:43:00;5.68;;;5.15;;
20531;SDS011;10424;52.102;8.084;2022-08-14T10:45:31;6.45;;;5.38;;
20531;SDS011;10424;52.102;8.084;2022-08-14T10:47:58;5.75;;;5.25;;
20531;SDS011;10424;52.102;8.084;2022-08-14T10:50:29;6.30;;;5.10;;
20531;SDS011;10424;52.102;8.084;2022-08-14T10:52:58;6.50;;;5.40;;
20531;SDS011;10424;52.102;8.084;2022-08-14T10:55:30;6.43;;;4.97;;
20531;SDS011;10424;52.102;8.084;2022-08-14T10:58:04;6.47;;;5.05;;
20531;SDS011;10424;52.102;8.084;2022-08-14T11:00:37;7.95;;;5.07;;
20531;SDS011;10424;52.102;8.084;2022-08-14T11:03:06;5.75;;;5.03;;
20531;SDS011;10424;52.102;8.084;2022-08-14T11:05:38;6.13;;;4.78;;
20531;SDS011;10424;52.102;8.084;2022-08-14T11:08:07;8.32;;;4.80;;
20531;SDS011;10424;52.102;8.084;2022-08-14T11:10:38;6.35;;;5.05;;
20531;SDS011;10424;52.102;8.084;2022-08-14T11:13:06;6.25;;;4.93;;
20531;SDS011;10424;52.102;8.084;2022-08-14T11:15:33;6.10;;;4.93;;
20531;SDS011;10424;52.102;8.084;2022-08-14T11:18:02;5.43;;;4.85;;
20531;SDS011;10424;52.102;8.084;2022-08-14T11:20:30;6.97;;;4.78;;
20531;SDS011;10424;52.102;8.084;2022-08-14T11:22:58;5.95;;;5.22;;
20531;SDS011;10424;52.102;8.084;2022-08-14T11:25:27;5.57;;;4.93;;
20531;SDS011;10424;52.102;8.084;2022-08-14T11:27:56;6.82;;;4.90;;
20531;SDS011;10424;52.102;8.084;2022-08-14T11:30:23;8.18;;;5.00;;
20531;SDS011;10424;52.102;8.084;2022-08-14T11:32:51;5.35;;;4.65;;
20531;SDS011;10424;52.102;8.084;2022-08-14T11:35:21;5.32;;;4.78;;
20531;SDS011;10424;52.102;8.084;2022-08-14T11:37:49;5.00;;;4.55;;
20531;SDS011;10424;52.102;8.084;2022-08-14T11:40:17;6.63;;;4.75;;
20531;SDS011;10424;52.102;8.084;2022-08-14T11:42:45;5.70;;;4.70;;
20531;SDS011;10424;52.102;8.084;2022-08-14T11:45:13;6.28;;;4.97;;
20531;SDS011;10424;52.102;8.084;2022-08-14T11:47:40;5.82;;;4.50;;
20531;SDS011;10424;52.102;8.084;2022-08-14T11:50:12;6.32;;;4.93;;
20531;SDS011;10424;52.102;8.084;2022-08-14T11:52:41;7.35;;;5.20;;
20531;SDS011;10424;52.102;8.084;2022-08-14T11:55:10;6.78;;;5.30;;
20531;SDS011;10424;52.102;8.084;2022-08-14T11:57:37;7.50;;;5.15;;
20531;SDS011;10424;52.102;8.084;2022-08-14T12:00:06;6.70;;;5.20;;
20531;SDS011;10424;52.102;8.084;2022-08-14T12:02:34;6.30;;;4.78;;
20531;SDS011;10424;52.102;8.084;2022-08-14T12:05:02;6.93;;;5.25;;
20531;SDS011;10424;52.102;8.084;2022-08-14T12:07:30;6.22;;;5.15;;
20531;SDS011;10424;52.102;8.084;2022-08-14T12:09:58;6.07;;;5.13;;
20531;SDS011;10424;52.102;8.084;2022-08-14T12:12:27;5.40;;;4.90;;
20531;SDS011;10424;52.102;8.084;2022-08-14T12:14:57;5.65;;;5.00;;
20531;SDS011;10424;52.102;8.084;2022-08-14T12:17:26;5.40;;;4.90;;
20531;SDS011;10424;52.102;8.084;2022-08-14T12:19:55;6.70;;;5.18;;
20531;SDS011;10424;52.102;8.084;2022-08-14T12:22:32;5.57;;;4.97;;
20531;SDS011;10424;52.102;8.084;2022-08-14T12:25:01;5.70;;;4.93;;
20531;SDS011;10424;52.102;8.084;2022-08-14T12:27:36;7.03;;;5.07;;
20531;SDS011;10424;52.102;8.084;2022-08-14T12:30:04;6.55;;;4.75;;
20531;SDS011;10424;52.102;8.084;2022-08-14T12:32:38;5.45;;;4.72;;
20531;SDS011;10424;52.102;8.084;2022-08-14T12:35:06;4.80;;;4.30;;
20531;SDS011;10424;52.102;8.084;2022-08-14T12:37:34;4.72;;;4.22;;
20531;SDS011;10424;52.102;8.084;2022-08-14T12:40:11;5.45;;;4.85;;
20531;SDS011;10424;52.102;8.084;2022-08-14T12:42:39;5.60;;;4.47;;
20531;SDS011;10424;52.102;8.084;2022-08-14T12:45:08;5.10;;;4.57;;
20531;SDS011;10424;52.102;8.084;2022-08-14T12:47:37;7.03;;;4.60;;
20531;SDS011;10424;52.102;8.084;2022-08-14T12:50:04;5.10;;;4.60;;
20531;SDS011;10424;52.102;8.084;2022-08-14T12:52:33;5.15;;;4.60;;
20531;SDS011;10424;52.102;8.084;2022-08-14T12:55:00;6.70;;;4.20;;
20531;SDS011;10424;52.102;8.084;2022-08-14T12:57:33;4.07;;;3.67;;
20531;SDS011;10424;52.102;8.084;2022-08-14T13:00:08;5.38;;;4.22;;
20531;SDS011;10424;52.102;8.084;2022-08-14T13:02:37;4.80;;;4.30;;
20531;SDS011;10424;52.102;8.084;2022-08-14T13:05:05;4.28;;;3.88;;
20531;SDS011;10424;52.102;8.084;2022-08-14T13:07:34;5.65;;;4.28;;
20531;SDS011;10424;52.102;8.084;2022-08-14T13:10:04;5.70;;;4.10;;
20531;SDS011;10424;52.102;8.084;2022-08-14T13:12:33;5.00;;;3.90;;
20531;SDS011;10424;52.102;8.084;2022-08-14T13:15:03;6.15;;;4.28;;
20531;SDS011;10424;52.102;8.084;2022-08-14T13:17:31;5.88;;;4.30;;
20531;SDS011;10424;52.102;8.084;2022-08-14T13:20:01;5.15;;;4.63;;
20531;SDS011;10424;52.102;8.084;2022-08-14T13:22:29;4.57;;;4.10;;
20531;SDS011;10424;52.102;8.084;2022-08-14T13:24:59;5.25;;;4.20;;
20531;SDS011;10424;52.102;8.084;2022-08-14T13:27:27;5.18;;;4.50;;
20531;SDS011;10424;52.102;8.084;2022-08-14T13:29:56;5.90;;;4.40;;
20531;SDS011;10424;52.102;8.084;2022-08-14T13:32:25;6.72;;;4.55;;
20531;SDS011;10424;52.102;8.084;2022-08-14T13:34:53;4.88;;;4.30;;
20531;SDS011;10424;52.102;8.084;2022-08-14T13:37:22;5.90;;;4.05;;
20531;SDS011;10424;52.102;8.084;2022-08-14T13:39:50;5.05;;;4.13;;
20531;SDS011;10424;52.102;8.084;2022-08-14T13:42:18;5.57;;;4.40;;
20531;SDS011;10424;52.102;8.084;2022-08-14T13:44:46;6.80;;;4.50;;
20531;SDS011;10424;52.102;8.084;2022-08-14T13:47:17;5.18;;;4.38;;
20531;SDS011;10424;52.102;8.084;2022-08-14T13:49:44;7.53;;;4.43;;
20531;SDS011;10424;52.102;8.084;2022-08-14T13:52:12;6.18;;;4.38;;
20531;SDS011;10424;52.102;8.084;2022-08-14T13:54:43;6.97;;;4.32;;
20531;SDS011;10424;52.102;8.084;2022-08-14T13:57:11;5.35;;;4.22;;
20531;SDS011;10424;52.102;8.084;2022-08-14T13:59:42;4.22;;;3.83;;
20531;SDS011;10424;52.102;8.084;2022-08-14T14:02:10;6.47;;;4.00;;
20531;SDS011;10424;52.102;8.084;2022-08-14T14:04:39;4.65;;;3.53;;
20531;SDS011;10424;52.102;8.084;2022-08-14T14:07:07;4.78;;;3.80;;
20531;SDS011;10424;52.102;8.084;2022-08-14T14:09:38;4.50;;;4.10;;
20531;SDS011;10424;52.102;8.084;2022-08-14T14:12:05;4.57;;;4.00;;
20531;SDS011;10424;52.102;8.084;2022-08-14T14:14:33;5.30;;;3.88;;
20531;SDS011;10424;52.102;8.084;2022-08-14T14:17:02;5.25;;;4.10;;
20531;SDS011;10424;52.102;8.084;2022-08-14T14:19:30;4.38;;;3.90;;
20531;SDS011;10424;52.102;8.084;2022-08-14T14:22:01;4.65;;;4.25;;
20531;SDS011;10424;52.102;8.084;2022-08-14T14:24:29;4.97;;;4.57;;
20531;SDS011;10424;52.102;8.084;2022-08-14T14:26:57;4.90;;;4.40;;
20531;SDS011;10424;52.102;8.084;2022-08-14T14:29:27;4.70;;;4.22;;
20531;SDS011;10424;52.102;8.084;2022-08-14T14:31:56;5.28;;;3.88;;
20531;SDS011;10424;52.102;8.084;2022-08-14T14:34:25;4.93;;;4.15;;
20531;SDS011;10424;52.102;8.084;2022-08-14T14:36:52;5.40;;;4.50;;
20531;SDS011;10424;52.102;8.084;2022-08-14T14:39:22;4.95;;;4.45;;
20531;SDS011;10424;52.102;8.084;2022-08-14T14:41:52;5.10;;;4.60;;
20531;SDS011;10424;52.102;8.084;2022-08-14T14:44:22;5.10;;;4.60;;
20531;SDS011;10424;52.102;8.084;2022-08-14T14:46:49;6.05;;;4.25;;
20531;SDS011;10424;52.102;8.084;2022-08-14T14:49:17;4.88;;;4.40;;
20531;SDS011;10424;52.102;8.084;2022-08-14T14:51:45;5.68;;;4.60;;
20531;SDS011;10424;52.102;8.084;2022-08-14T14:54:13;4.70;;;4.25;;
20531;SDS011;10424;52.102;8.084;2022-08-14T14:56:43;5.55;;;4.40;;
20531;SDS011;10424;52.102;8.084;2022-08-14T14:59:12;5.28;;;4.13;;
20531;SDS011;10424;52.102;8.084;2022-08-14T15:01:39;5.25;;;4.40;;
20531;SDS011;10424;52.102;8.084;2022-08-14T15:04:08;7.03;;;4.25;;
20531;SDS011;10424;52.102;8.084;2022-08-14T15:06:35;4.47;;;4.07;;
20531;SDS011;10424;52.102;8.084;2022-08-14T15:09:02;5.47;;;4.53;;
20531;SDS011;10424;52.102;8.084;2022-08-14T15:11:30;5.03;;;4.30;;